sensor_id;sensor_type;location;lat;lon;timestamp;pressure;altitude;pressure_sealevel;temperature;humidity
51759;BME280;66684;47.568;18.734;2023-03-26T00:01:55;98977.94;;;7.99;85.60
51759;BME280;66684;47.568;18.734;2023-03-26T00:04:23;98977.78;;;7.96;85.91
51759;BME280;66684;47.568;18.734;2023-03-26T00:06:50;98990.78;;;7.99;85.74
51759;BME280;66684;47.568;18.734;2023-03-26T00:09:17;98980.25;;;7.93;86.63
51759;BME280;66684;47.568;18.734;2023-03-26T00:11:44;98985.41;;;7.93;86.28
51759;BME280;66684;47.568;18.734;2023-03-26T00:14:12;98980.25;;;7.93;86.24
51759;BME280;66684;47.568;18.734;2023-03-26T00:16:43;98978.09;;;7.83;87.11
51759;BME280;66684;47.568;18.734;2023-03-26T00:19:09;98974.59;;;7.81;87.43
51759;BME280;66684;47.568;18.734;2023-03-26T00:21:36;98980.37;;;7.75;87.50
51759;BME280;66684;47.568;18.734;2023-03-26T00:24:08;98973.63;;;7.79;87.61
51759;BME280;66684;47.568;18.734;2023-03-26T00:26:35;98971.81;;;7.76;87.80
51759;BME280;66684;47.568;18.734;2023-03-26T00:29:03;98972.72;;;7.77;87.68
51759;BME280;66684;47.568;18.734;2023-03-26T00:31:29;98978.00;;;7.80;87.96
51759;BME280;66684;47.568;18.734;2023-03-26T00:33:55;98964.31;;;7.81;87.24
51759;BME280;66684;47.568;18.734;2023-03-26T00:36:24;98965.03;;;7.78;87.00
51759;BME280;66684;47.568;18.734;2023-03-26T00:38:51;98962.66;;;7.83;86.46
51759;BME280;66684;47.568;18.734;2023-03-26T00:41:19;98966.50;;;7.93;85.72
51759;BME280;66684;47.568;18.734;2023-03-26T00:43:53;98980.34;;;7.96;85.37
51759;BME280;66684;47.568;18.734;2023-03-26T00:46:24;98964.91;;;7.96;85.12
51759;BME280;66684;47.568;18.734;2023-03-26T00:48:50;98954.78;;;7.99;84.51
51759;BME280;66684;47.568;18.734;2023-03-26T00:51:18;98958.16;;;7.98;84.75
51759;BME280;66684;47.568;18.734;2023-03-26T00:53:47;98951.25;;;7.97;84.19
51759;BME280;66684;47.568;18.734;2023-03-26T00:56:13;98949.63;;;7.99;84.25
51759;BME280;66684;47.568;18.734;2023-03-26T00:58:39;98961.91;;;7.85;85.25
51759;BME280;66684;47.568;18.734;2023-03-26T01:01:18;98955.53;;;7.76;85.70
51759;BME280;66684;47.568;18.734;2023-03-26T01:03:45;98962.53;;;7.59;86.96
51759;BME280;66684;47.568;18.734;2023-03-26T01:06:25;98958.56;;;7.46;87.75
51759;BME280;66684;47.568;18.734;2023-03-26T01:08:54;98956.41;;;7.55;87.13
51759;BME280;66684;47.568;18.734;2023-03-26T01:11:27;98951.78;;;7.68;86.53
51759;BME280;66684;47.568;18.734;2023-03-26T01:14:03;98956.22;;;7.32;88.25
51759;BME280;66684;47.568;18.734;2023-03-26T01:16:56;98961.16;;;7.27;88.94
51759;BME280;66684;47.568;18.734;2023-03-26T01:19:28;98950.75;;;7.43;87.47
51759;BME280;66684;47.568;18.734;2023-03-26T01:21:56;98959.00;;;7.36;87.49
51759;BME280;66684;47.568;18.734;2023-03-26T01:24:23;98956.00;;;7.46;87.06
51759;BME280;66684;47.568;18.734;2023-03-26T01:34:36;98953.97;;;7.39;86.80
51759;BME280;66684;47.568;18.734;2023-03-26T01:39:56;98941.81;;;7.35;88.00
51759;BME280;66684;47.568;18.734;2023-03-26T01:45:14;98938.59;;;7.20;88.67
51759;BME280;66684;47.568;18.734;2023-03-26T01:47:41;98933.34;;;7.17;88.89
51759;BME280;66684;47.568;18.734;2023-03-26T01:50:08;98934.16;;;6.96;90.08
51759;BME280;66684;47.568;18.734;2023-03-26T01:52:35;98939.81;;;6.89;90.71
51759;BME280;66684;47.568;18.734;2023-03-26T01:55:01;98936.59;;;6.93;91.06
51759;BME280;66684;47.568;18.734;2023-03-26T01:58:21;98941.84;;;6.96;90.77
51759;BME280;66684;47.568;18.734;2023-03-26T02:00:28;98943.06;;;7.24;88.66
51759;BME280;66684;47.568;18.734;2023-03-26T02:03:04;98940.63;;;7.08;89.43
51759;BME280;66684;47.568;18.734;2023-03-26T02:05:41;98936.72;;;6.96;90.45
51759;BME280;66684;47.568;18.734;2023-03-26T02:10:48;98944.91;;;6.88;91.09
51759;BME280;66684;47.568;18.734;2023-03-26T02:13:15;98941.47;;;6.87;91.75
51759;BME280;66684;47.568;18.734;2023-03-26T02:16:03;98950.69;;;6.84;91.68
51759;BME280;66684;47.568;18.734;2023-03-26T02:18:30;98943.69;;;6.80;92.21
51759;BME280;66684;47.568;18.734;2023-03-26T02:21:13;98947.41;;;6.67;93.28
51759;BME280;66684;47.568;18.734;2023-03-26T02:23:41;98948.87;;;6.62;93.83
51759;BME280;66684;47.568;18.734;2023-03-26T02:26:16;98947.03;;;6.59;94.21
51759;BME280;66684;47.568;18.734;2023-03-26T02:28:42;98950.47;;;6.60;94.22
51759;BME280;66684;47.568;18.734;2023-03-26T02:31:08;98952.38;;;6.64;93.87
51759;BME280;66684;47.568;18.734;2023-03-26T02:33:36;98941.28;;;6.65;93.59
51759;BME280;66684;47.568;18.734;2023-03-26T02:36:03;98934.28;;;6.80;92.59
51759;BME280;66684;47.568;18.734;2023-03-26T02:38:31;98927.25;;;6.76;92.85
51759;BME280;66684;47.568;18.734;2023-03-26T02:41:01;98928.00;;;6.73;93.67
51759;BME280;66684;47.568;18.734;2023-03-26T02:43:27;98926.72;;;6.64;94.71
51759;BME280;66684;47.568;18.734;2023-03-26T02:45:53;98930.75;;;6.78;92.88
51759;BME280;66684;47.568;18.734;2023-03-26T02:48:19;98930.22;;;6.66;94.89
51759;BME280;66684;47.568;18.734;2023-03-26T02:50:46;98923.47;;;6.48;94.77
51759;BME280;66684;47.568;18.734;2023-03-26T02:53:15;98918.34;;;6.68;92.49
51759;BME280;66684;47.568;18.734;2023-03-26T02:55:41;98922.12;;;6.76;91.95
51759;BME280;66684;47.568;18.734;2023-03-26T02:58:07;98922.94;;;6.94;89.40
51759;BME280;66684;47.568;18.734;2023-03-26T03:00:34;98926.31;;;7.13;88.54
51759;BME280;66684;47.568;18.734;2023-03-26T03:03:00;98925.63;;;7.17;87.98
51759;BME280;66684;47.568;18.734;2023-03-26T03:05:30;98923.47;;;7.07;88.33
51759;BME280;66684;47.568;18.734;2023-03-26T03:07:57;98924.38;;;7.28;86.50
51759;BME280;66684;47.568;18.734;2023-03-26T03:10:24;98925.97;;;7.24;86.75
51759;BME280;66684;47.568;18.734;2023-03-26T03:12:51;98928.03;;;7.33;85.77
51759;BME280;66684;47.568;18.734;2023-03-26T03:15:16;98916.50;;;7.44;84.87
51759;BME280;66684;47.568;18.734;2023-03-26T03:17:42;98925.50;;;7.35;85.36
51759;BME280;66684;47.568;18.734;2023-03-26T03:20:09;98919.22;;;7.28;85.75
51759;BME280;66684;47.568;18.734;2023-03-26T03:22:36;98919.63;;;7.37;84.91
51759;BME280;66684;47.568;18.734;2023-03-26T03:25:03;98916.81;;;7.31;85.30
51759;BME280;66684;47.568;18.734;2023-03-26T03:27:29;98909.41;;;7.18;85.62
51759;BME280;66684;47.568;18.734;2023-03-26T03:29:55;98912.41;;;7.28;84.94
51759;BME280;66684;47.568;18.734;2023-03-26T03:32:23;98915.62;;;7.44;83.98
51759;BME280;66684;47.568;18.734;2023-03-26T03:34:49;98926.00;;;7.26;86.27
51759;BME280;66684;47.568;18.734;2023-03-26T03:37:17;98927.50;;;7.21;87.02
51759;BME280;66684;47.568;18.734;2023-03-26T03:39:43;98926.37;;;7.14;87.55
51759;BME280;66684;47.568;18.734;2023-03-26T03:42:09;98925.91;;;7.23;84.95
51759;BME280;66684;47.568;18.734;2023-03-26T03:44:35;98934.66;;;7.28;84.39
51759;BME280;66684;47.568;18.734;2023-03-26T03:47:01;98930.59;;;7.33;83.75
51759;BME280;66684;47.568;18.734;2023-03-26T03:49:27;98937.84;;;7.42;83.00
51759;BME280;66684;47.568;18.734;2023-03-26T03:51:53;98934.25;;;7.38;82.92
51759;BME280;66684;47.568;18.734;2023-03-26T03:54:20;98939.50;;;7.41;83.03
51759;BME280;66684;47.568;18.734;2023-03-26T03:56:47;98946.31;;;7.41;82.47
51759;BME280;66684;47.568;18.734;2023-03-26T03:59:13;98943.31;;;7.30;83.68
51759;BME280;66684;47.568;18.734;2023-03-26T04:01:40;98943.72;;;7.20;83.83
51759;BME280;66684;47.568;18.734;2023-03-26T04:04:08;98951.03;;;7.30;83.58
51759;BME280;66684;47.568;18.734;2023-03-26T04:06:34;98951.72;;;7.26;83.76
51759;BME280;66684;47.568;18.734;2023-03-26T04:09:00;98944.25;;;7.32;83.33
51759;BME280;66684;47.568;18.734;2023-03-26T04:11:26;98944.13;;;7.10;84.57
51759;BME280;66684;47.568;18.734;2023-03-26T04:13:51;98951.41;;;6.99;85.09
51759;BME280;66684;47.568;18.734;2023-03-26T04:16:17;98935.75;;;7.14;83.50
51759;BME280;66684;47.568;18.734;2023-03-26T04:18:43;98937.31;;;6.91;84.43
51759;BME280;66684;47.568;18.734;2023-03-26T04:21:12;98939.44;;;6.99;84.41
51759;BME280;66684;47.568;18.734;2023-03-26T04:23:40;98943.19;;;7.08;84.77
51759;BME280;66684;47.568;18.734;2023-03-26T04:26:15;98939.69;;;7.06;84.35
51759;BME280;66684;47.568;18.734;2023-03-26T04:28:47;98935.38;;;7.05;85.29
51759;BME280;66684;47.568;18.734;2023-03-26T04:31:19;98937.25;;;6.89;86.87
51759;BME280;66684;47.568;18.734;2023-03-26T04:33:50;98931.03;;;6.84;86.73
51759;BME280;66684;47.568;18.734;2023-03-26T04:36:26;98936.06;;;6.81;87.21
51759;BME280;66684;47.568;18.734;2023-03-26T04:38:53;98928.41;;;6.83;86.58
51759;BME280;66684;47.568;18.734;2023-03-26T04:41:19;98934.28;;;6.80;86.54
51759;BME280;66684;47.568;18.734;2023-03-26T04:43:47;98941.31;;;6.84;86.57
51759;BME280;66684;47.568;18.734;2023-03-26T04:46:15;98936.72;;;6.96;84.95
51759;BME280;66684;47.568;18.734;2023-03-26T04:48:52;98931.41;;;7.32;82.48
51759;BME280;66684;47.568;18.734;2023-03-26T04:51:20;98935.56;;;7.49;81.75
51759;BME280;66684;47.568;18.734;2023-03-26T04:53:53;98945.16;;;7.53;83.08
51759;BME280;66684;47.568;18.734;2023-03-26T04:56:33;98935.31;;;7.64;82.03
51759;BME280;66684;47.568;18.734;2023-03-26T04:59:02;98942.09;;;7.62;83.78
51759;BME280;66684;47.568;18.734;2023-03-26T05:01:28;98941.34;;;7.65;83.80
51759;BME280;66684;47.568;18.734;2023-03-26T05:03:56;98932.94;;;7.90;80.83
51759;BME280;66684;47.568;18.734;2023-03-26T05:06:24;98929.28;;;7.84;83.48
51759;BME280;66684;47.568;18.734;2023-03-26T05:08:53;98938.66;;;7.82;82.64
51759;BME280;66684;47.568;18.734;2023-03-26T05:11:19;98920.44;;;7.99;81.03
51759;BME280;66684;47.568;18.734;2023-03-26T05:13:45;98930.22;;;8.07;81.74
51759;BME280;66684;47.568;18.734;2023-03-26T05:16:11;98923.50;;;8.11;80.27
51759;BME280;66684;47.568;18.734;2023-03-26T05:18:38;98926.81;;;8.08;81.48
51759;BME280;66684;47.568;18.734;2023-03-26T05:21:04;98929.03;;;7.99;82.09
51759;BME280;66684;47.568;18.734;2023-03-26T05:23:30;98928.59;;;8.32;82.31
51759;BME280;66684;47.568;18.734;2023-03-26T05:25:56;98934.03;;;8.17;85.53
51759;BME280;66684;47.568;18.734;2023-03-26T05:28:22;98938.53;;;8.23;87.12
51759;BME280;66684;47.568;18.734;2023-03-26T05:30:51;98934.91;;;8.18;88.16
51759;BME280;66684;47.568;18.734;2023-03-26T05:33:19;98931.03;;;8.29;87.71
51759;BME280;66684;47.568;18.734;2023-03-26T05:35:45;98933.72;;;8.09;89.81
51759;BME280;66684;47.568;18.734;2023-03-26T05:38:11;98934.69;;;7.91;90.30
51759;BME280;66684;47.568;18.734;2023-03-26T05:40:37;98931.53;;;8.19;84.87
51759;BME280;66684;47.568;18.734;2023-03-26T05:43:03;98934.75;;;8.35;84.91
51759;BME280;66684;47.568;18.734;2023-03-26T05:45:29;98936.41;;;8.35;86.12
51759;BME280;66684;47.568;18.734;2023-03-26T05:47:55;98926.72;;;8.73;79.32
51759;BME280;66684;47.568;18.734;2023-03-26T05:50:21;98925.16;;;8.76;79.04
51759;BME280;66684;47.568;18.734;2023-03-26T05:52:47;98929.75;;;8.85;77.66
51759;BME280;66684;47.568;18.734;2023-03-26T05:55:13;98927.53;;;8.94;77.00
51759;BME280;66684;47.568;18.734;2023-03-26T05:57:39;98929.50;;;9.01;77.42
51759;BME280;66684;47.568;18.734;2023-03-26T06:00:07;98933.34;;;9.12;76.46
51759;BME280;66684;47.568;18.734;2023-03-26T06:02:36;98930.62;;;8.85;76.82
51759;BME280;66684;47.568;18.734;2023-03-26T06:05:02;98928.22;;;8.90;78.96
51759;BME280;66684;47.568;18.734;2023-03-26T06:07:29;98930.56;;;8.84;77.47
51759;BME280;66684;47.568;18.734;2023-03-26T06:09:55;98927.84;;;9.03;75.96
51759;BME280;66684;47.568;18.734;2023-03-26T06:12:21;98930.31;;;9.00;75.99
51759;BME280;66684;47.568;18.734;2023-03-26T06:14:47;98923.78;;;9.10;75.65
51759;BME280;66684;47.568;18.734;2023-03-26T06:17:13;98926.53;;;9.14;75.61
51759;BME280;66684;47.568;18.734;2023-03-26T06:19:39;98931.75;;;9.17;76.70
51759;BME280;66684;47.568;18.734;2023-03-26T06:22:05;98931.88;;;9.44;74.04
51759;BME280;66684;47.568;18.734;2023-03-26T06:24:31;98923.53;;;9.79;71.95
51759;BME280;66684;47.568;18.734;2023-03-26T06:26:57;98921.28;;;9.88;72.79
51759;BME280;66684;47.568;18.734;2023-03-26T06:29:24;98926.75;;;9.98;71.38
51759;BME280;66684;47.568;18.734;2023-03-26T06:31:50;98919.34;;;10.09;70.84
51759;BME280;66684;47.568;18.734;2023-03-26T06:34:16;98921.91;;;10.08;70.35
51759;BME280;66684;47.568;18.734;2023-03-26T06:36:42;98935.38;;;10.24;69.96
51759;BME280;66684;47.568;18.734;2023-03-26T06:39:07;98933.91;;;10.33;69.92
51759;BME280;66684;47.568;18.734;2023-03-26T06:41:34;98925.56;;;10.43;70.94
51759;BME280;66684;47.568;18.734;2023-03-26T06:44:00;98931.28;;;10.61;68.90
51759;BME280;66684;47.568;18.734;2023-03-26T06:46:26;98927.97;;;10.65;68.50
51759;BME280;66684;47.568;18.734;2023-03-26T06:48:52;98942.00;;;10.73;67.35
51759;BME280;66684;47.568;18.734;2023-03-26T06:51:18;98936.94;;;10.76;67.07
51759;BME280;66684;47.568;18.734;2023-03-26T06:53:44;98938.91;;;10.87;66.21
51759;BME280;66684;47.568;18.734;2023-03-26T06:56:10;98939.09;;;10.93;66.61
51759;BME280;66684;47.568;18.734;2023-03-26T06:58:36;98940.03;;;10.95;67.04
51759;BME280;66684;47.568;18.734;2023-03-26T07:01:02;98937.88;;;11.10;65.65
51759;BME280;66684;47.568;18.734;2023-03-26T07:03:27;98942.88;;;11.04;67.47
51759;BME280;66684;47.568;18.734;2023-03-26T07:05:54;98941.37;;;11.12;65.77
51759;BME280;66684;47.568;18.734;2023-03-26T07:08:20;98939.94;;;11.23;64.97
51759;BME280;66684;47.568;18.734;2023-03-26T07:10:45;98934.25;;;11.35;63.60
51759;BME280;66684;47.568;18.734;2023-03-26T07:13:12;98937.03;;;11.43;61.68
51759;BME280;66684;47.568;18.734;2023-03-26T07:15:37;98937.97;;;11.45;60.72
51759;BME280;66684;47.568;18.734;2023-03-26T07:18:03;98946.03;;;11.57;62.47
51759;BME280;66684;47.568;18.734;2023-03-26T07:20:29;98941.81;;;11.60;59.99
51759;BME280;66684;47.568;18.734;2023-03-26T07:22:56;98941.19;;;11.69;59.45
51759;BME280;66684;47.568;18.734;2023-03-26T07:25:22;98939.91;;;11.86;61.89
51759;BME280;66684;47.568;18.734;2023-03-26T07:28:11;98951.19;;;11.88;58.85
51759;BME280;66684;47.568;18.734;2023-03-26T07:44:20;98941.03;;;11.98;61.72
51759;BME280;66684;47.568;18.734;2023-03-26T07:46:52;98944.47;;;11.97;62.91
51759;BME280;66684;47.568;18.734;2023-03-26T07:49:20;98949.94;;;12.09;61.96
51759;BME280;66684;47.568;18.734;2023-03-26T07:51:47;98936.00;;;12.04;61.30
51759;BME280;66684;47.568;18.734;2023-03-26T07:54:13;98940.72;;;12.20;59.97
51759;BME280;66684;47.568;18.734;2023-03-26T07:57:00;98934.75;;;12.24;59.62
51759;BME280;66684;47.568;18.734;2023-03-26T07:59:51;98938.19;;;12.23;61.34
51759;BME280;66684;47.568;18.734;2023-03-26T08:05:51;98936.75;;;12.36;60.01
51759;BME280;66684;47.568;18.734;2023-03-26T08:08:30;98934.91;;;12.30;59.21
51759;BME280;66684;47.568;18.734;2023-03-26T08:11:12;98939.31;;;12.34;59.34
51759;BME280;66684;47.568;18.734;2023-03-26T08:13:53;98928.88;;;12.31;59.17
51759;BME280;66684;47.568;18.734;2023-03-26T08:16:43;98922.09;;;12.36;59.12
51759;BME280;66684;47.568;18.734;2023-03-26T08:21:49;98925.78;;;12.48;58.83
51759;BME280;66684;47.568;18.734;2023-03-26T08:29:56;98919.31;;;12.68;56.89
51759;BME280;66684;47.568;18.734;2023-03-26T08:32:27;98923.97;;;12.84;56.87
51759;BME280;66684;47.568;18.734;2023-03-26T08:34:53;98919.56;;;12.80;55.78
51759;BME280;66684;47.568;18.734;2023-03-26T08:37:19;98917.19;;;12.91;56.54
51759;BME280;66684;47.568;18.734;2023-03-26T08:39:45;98912.94;;;12.94;56.28
51759;BME280;66684;47.568;18.734;2023-03-26T09:04:20;98909.66;;;13.02;57.83
51759;BME280;66684;47.568;18.734;2023-03-26T09:07:15;98915.72;;;13.04;57.12
51759;BME280;66684;47.568;18.734;2023-03-26T09:10:07;98914.00;;;13.03;55.63
51759;BME280;66684;47.568;18.734;2023-03-26T09:21:24;98921.75;;;13.03;56.82
51759;BME280;66684;47.568;18.734;2023-03-26T09:37:57;98893.97;;;12.95;58.00
51759;BME280;66684;47.568;18.734;2023-03-26T09:40:34;98889.78;;;13.04;55.98
51759;BME280;66684;47.568;18.734;2023-03-26T09:51:34;98854.94;;;13.33;55.34
51759;BME280;66684;47.568;18.734;2023-03-26T09:54:17;98853.72;;;13.64;57.27
51759;BME280;66684;47.568;18.734;2023-03-26T09:57:05;98843.97;;;14.07;53.92
51759;BME280;66684;47.568;18.734;2023-03-26T10:00:13;98830.16;;;14.10;54.12
51759;BME280;66684;47.568;18.734;2023-03-26T10:03:11;98831.25;;;13.68;50.28
51759;BME280;66684;47.568;18.734;2023-03-26T10:11:42;98825.47;;;13.84;51.40
51759;BME280;66684;47.568;18.734;2023-03-26T10:20:18;98813.09;;;14.27;50.35
51759;BME280;66684;47.568;18.734;2023-03-26T10:23:12;98812.06;;;14.14;50.44
51759;BME280;66684;47.568;18.734;2023-03-26T10:26:07;98806.91;;;14.20;51.61
51759;BME280;66684;47.568;18.734;2023-03-26T10:31:27;98804.13;;;14.07;51.49
51759;BME280;66684;47.568;18.734;2023-03-26T10:37:25;98798.16;;;14.12;51.90
51759;BME280;66684;47.568;18.734;2023-03-26T10:40:08;98793.62;;;13.97;52.46
51759;BME280;66684;47.568;18.734;2023-03-26T10:43:00;98788.47;;;14.00;52.03
51759;BME280;66684;47.568;18.734;2023-03-26T10:48:24;98779.78;;;14.67;51.69
51759;BME280;66684;47.568;18.734;2023-03-26T10:51:23;98774.97;;;15.08;52.39
51759;BME280;66684;47.568;18.734;2023-03-26T10:54:09;98766.97;;;14.85;50.97
51759;BME280;66684;47.568;18.734;2023-03-26T10:56:45;98759.97;;;14.78;51.46
51759;BME280;66684;47.568;18.734;2023-03-26T10:59:14;98762.91;;;15.15;51.14
51759;BME280;66684;47.568;18.734;2023-03-26T11:02:43;98752.59;;;15.22;49.53
51759;BME280;66684;47.568;18.734;2023-03-26T11:15:51;98722.28;;;15.27;51.79
51759;BME280;66684;47.568;18.734;2023-03-26T11:18:26;98718.66;;;15.08;52.25
51759;BME280;66684;47.568;18.734;2023-03-26T11:26:46;98692.88;;;15.45;47.45
51759;BME280;66684;47.568;18.734;2023-03-26T11:32:05;98691.13;;;15.44;48.05
51759;BME280;66684;47.568;18.734;2023-03-26T11:34:39;98691.00;;;15.23;47.86
51759;BME280;66684;47.568;18.734;2023-03-26T11:37:14;98683.91;;;15.06;48.87
51759;BME280;66684;47.568;18.734;2023-03-26T11:39:49;98677.78;;;15.00;48.34
51759;BME280;66684;47.568;18.734;2023-03-26T11:42:21;98680.44;;;15.04;51.35
51759;BME280;66684;47.568;18.734;2023-03-26T11:47:22;98678.72;;;15.03;48.82
51759;BME280;66684;47.568;18.734;2023-03-26T11:49:50;98667.34;;;14.95;49.23
51759;BME280;66684;47.568;18.734;2023-03-26T11:52:17;98663.00;;;14.91;49.51
51759;BME280;66684;47.568;18.734;2023-03-26T11:54:43;98652.44;;;14.76;48.17
51759;BME280;66684;47.568;18.734;2023-03-26T11:57:17;98645.56;;;14.81;50.13
51759;BME280;66684;47.568;18.734;2023-03-26T11:59:53;98653.56;;;15.02;52.91
51759;BME280;66684;47.568;18.734;2023-03-26T12:02:30;98645.56;;;14.79;53.75
51759;BME280;66684;47.568;18.734;2023-03-26T12:05:21;98631.69;;;14.79;53.05
51759;BME280;66684;47.568;18.734;2023-03-26T12:07:53;98626.53;;;14.88;52.54
51759;BME280;66684;47.568;18.734;2023-03-26T12:10:40;98626.59;;;14.91;53.98
51759;BME280;66684;47.568;18.734;2023-03-26T12:15:46;98609.34;;;15.05;54.05
51759;BME280;66684;47.568;18.734;2023-03-26T12:18:25;98605.84;;;15.03;53.50
51759;BME280;66684;47.568;18.734;2023-03-26T12:21:16;98604.88;;;14.86;52.77
51759;BME280;66684;47.568;18.734;2023-03-26T12:26:40;98601.41;;;14.89;54.08
51759;BME280;66684;47.568;18.734;2023-03-26T12:29:12;98596.19;;;14.84;54.47
51759;BME280;66684;47.568;18.734;2023-03-26T12:32:06;98573.59;;;14.78;50.47
51759;BME280;66684;47.568;18.734;2023-03-26T12:34:38;98561.59;;;14.97;49.31
51759;BME280;66684;47.568;18.734;2023-03-26T12:37:06;98574.66;;;15.06;49.44
51759;BME280;66684;47.568;18.734;2023-03-26T12:39:40;98560.72;;;15.01;47.50
51759;BME280;66684;47.568;18.734;2023-03-26T12:42:29;98557.34;;;15.08;45.25
51759;BME280;66684;47.568;18.734;2023-03-26T12:44:57;98553.91;;;15.16;45.11
51759;BME280;66684;47.568;18.734;2023-03-26T12:47:27;98535.75;;;15.29;44.78
51759;BME280;66684;47.568;18.734;2023-03-26T12:49:55;98538.41;;;15.52;43.71
51759;BME280;66684;47.568;18.734;2023-03-26T12:57:50;98541.03;;;15.49;42.71
51759;BME280;66684;47.568;18.734;2023-03-26T13:00:39;98528.78;;;15.25;43.39
51759;BME280;66684;47.568;18.734;2023-03-26T13:06:02;98513.44;;;16.03;41.48
51759;BME280;66684;47.568;18.734;2023-03-26T13:24:42;98487.25;;;15.56;39.21
51759;BME280;66684;47.568;18.734;2023-03-26T13:35:21;98463.91;;;16.31;39.43
51759;BME280;66684;47.568;18.734;2023-03-26T13:37:57;98467.38;;;16.17;40.23
51759;BME280;66684;47.568;18.734;2023-03-26T13:40:30;98456.03;;;16.52;40.46
51759;BME280;66684;47.568;18.734;2023-03-26T13:48:56;98442.09;;;16.91;37.88
51759;BME280;66684;47.568;18.734;2023-03-26T13:54:00;98430.84;;;16.60;38.29
51759;BME280;66684;47.568;18.734;2023-03-26T13:56:41;98424.78;;;16.49;38.63
51759;BME280;66684;47.568;18.734;2023-03-26T13:59:29;98419.50;;;16.80;39.32
51759;BME280;66684;47.568;18.734;2023-03-26T14:02:09;98408.16;;;16.90;36.37
51759;BME280;66684;47.568;18.734;2023-03-26T14:04:40;98409.97;;;16.66;38.72
51759;BME280;66684;47.568;18.734;2023-03-26T14:07:17;98409.06;;;16.81;37.01
51759;BME280;66684;47.568;18.734;2023-03-26T14:09:52;98403.88;;;16.75;36.98
51759;BME280;66684;47.568;18.734;2023-03-26T14:12:46;98416.06;;;16.55;37.54
51759;BME280;66684;47.568;18.734;2023-03-26T14:17:57;98395.19;;;16.56;38.63
51759;BME280;66684;47.568;18.734;2023-03-26T14:36:48;98383.09;;;16.28;39.78
51759;BME280;66684;47.568;18.734;2023-03-26T14:45:30;98378.75;;;16.21;39.39
51759;BME280;66684;47.568;18.734;2023-03-26T14:54:04;98358.84;;;15.92;39.46
51759;BME280;66684;47.568;18.734;2023-03-26T14:56:51;98356.22;;;16.06;39.52
51759;BME280;66684;47.568;18.734;2023-03-26T15:08:09;98331.03;;;15.99;41.00
51759;BME280;66684;47.568;18.734;2023-03-26T15:11:10;98335.38;;;15.92;41.02
51759;BME280;66684;47.568;18.734;2023-03-26T15:39:05;98291.97;;;15.36;41.62
51759;BME280;66684;47.568;18.734;2023-03-26T15:41:51;98285.03;;;15.29;42.66
51759;BME280;66684;47.568;18.734;2023-03-26T15:53:15;98272.91;;;15.28;42.48
51759;BME280;66684;47.568;18.734;2023-03-26T16:04:04;98253.78;;;15.10;43.70
51759;BME280;66684;47.568;18.734;2023-03-26T16:06:53;98244.25;;;14.99;44.09
51759;BME280;66684;47.568;18.734;2023-03-26T16:14:46;98226.00;;;14.79;45.20
51759;BME280;66684;47.568;18.734;2023-03-26T16:17:16;98218.22;;;14.77;45.45
51759;BME280;66684;47.568;18.734;2023-03-26T16:19:48;98210.37;;;14.67;46.29
51759;BME280;66684;47.568;18.734;2023-03-26T16:22:40;98215.59;;;14.61;47.04
51759;BME280;66684;47.568;18.734;2023-03-26T16:27:42;98212.03;;;14.43;46.74
51759;BME280;66684;47.568;18.734;2023-03-26T16:30:15;98217.28;;;14.46;46.70
51759;BME280;66684;47.568;18.734;2023-03-26T16:33:12;98210.25;;;14.30;47.05
51759;BME280;66684;47.568;18.734;2023-03-26T16:36:13;98218.94;;;14.35;47.12
51759;BME280;66684;47.568;18.734;2023-03-26T16:38:47;98213.69;;;14.17;47.88
51759;BME280;66684;47.568;18.734;2023-03-26T16:41:22;98208.44;;;14.08;48.14
51759;BME280;66684;47.568;18.734;2023-03-26T16:43:58;98216.22;;;14.08;48.64
51759;BME280;66684;47.568;18.734;2023-03-26T16:52:06;98209.31;;;14.07;49.71
51759;BME280;66684;47.568;18.734;2023-03-26T16:55:01;98212.75;;;14.06;50.09
51759;BME280;66684;47.568;18.734;2023-03-26T16:57:44;98214.47;;;14.00;51.02
51759;BME280;66684;47.568;18.734;2023-03-26T17:00:27;98212.69;;;13.95;51.48
51759;BME280;66684;47.568;18.734;2023-03-26T17:11:06;98221.16;;;13.54;53.19
51759;BME280;66684;47.568;18.734;2023-03-26T17:16:24;98216.81;;;13.52;53.69
51759;BME280;66684;47.568;18.734;2023-03-26T17:27:10;98223.34;;;13.07;57.96
51759;BME280;66684;47.568;18.734;2023-03-26T17:30:00;98223.34;;;13.07;58.76
51759;BME280;66684;47.568;18.734;2023-03-26T17:35:39;98215.44;;;12.91;55.66
51759;BME280;66684;47.568;18.734;2023-03-26T17:40:52;98218.13;;;13.04;55.95
51759;BME280;66684;47.568;18.734;2023-03-26T17:43:44;98221.59;;;13.06;55.36
51759;BME280;66684;47.568;18.734;2023-03-26T17:46:33;98223.38;;;13.13;55.80
51759;BME280;66684;47.568;18.734;2023-03-26T17:49:29;98228.62;;;13.16;55.76
51759;BME280;66684;47.568;18.734;2023-03-26T17:54:42;98226.97;;;13.24;54.84
51759;BME280;66684;47.568;18.734;2023-03-26T17:59:56;98230.44;;;13.26;55.41
51759;BME280;66684;47.568;18.734;2023-03-26T18:02:36;98232.97;;;13.20;55.30
51759;BME280;66684;47.568;18.734;2023-03-26T18:05:07;98226.84;;;13.12;55.14
51759;BME280;66684;47.568;18.734;2023-03-26T18:10:22;98218.97;;;12.98;55.57
51759;BME280;66684;47.568;18.734;2023-03-26T18:18:44;98216.19;;;12.81;56.72
51759;BME280;66684;47.568;18.734;2023-03-26T18:21:28;98205.88;;;12.87;57.87
51759;BME280;66684;47.568;18.734;2023-03-26T18:23:55;98206.81;;;12.94;59.67
51759;BME280;66684;47.568;18.734;2023-03-26T18:26:42;98199.03;;;12.92;59.14
51759;BME280;66684;47.568;18.734;2023-03-26T18:29:33;98201.56;;;12.88;59.49
51759;BME280;66684;47.568;18.734;2023-03-26T18:34:37;98192.09;;;12.91;58.66
51759;BME280;66684;47.568;18.734;2023-03-26T18:37:15;98189.41;;;12.79;58.69
51759;BME280;66684;47.568;18.734;2023-03-26T18:40:09;98190.28;;;12.81;59.27
51759;BME280;66684;47.568;18.734;2023-03-26T18:42:38;98170.34;;;12.73;59.46
51759;BME280;66684;47.568;18.734;2023-03-26T18:45:30;98171.13;;;12.64;59.42